<?xml version="1.0" encoding="UTF-8" standalone="no" ?>
<gpx xmlns="http://www.topografix.com/GPX/1/1" xmlns:xsi="http://www.w3.org/2001/XMLSchema-instance" xsi:schemaLocation="http://www.topografix.com/GPX/1/1 http://www.topografix.com/GPX/1/1/gpx.xsd" version="1.1" creator="VisuGPX - https://www.visugpx.com">
  <metadata>
    <name>Vacances 2021</name>
  </metadata>
  <trk>
    <name><![CDATA[Journal actif: 2021-07-28 15:20]]></name>
    <trkseg>
      <trkpt lat="49.35195" lon="2.97988">
        <ele>77.52</ele>
        <time>2021-07-28T17:20:27Z</time>
      </trkpt>
      <trkpt lat="49.35137" lon="2.9806">
        <ele>76.08</ele>
        <time>2021-07-28T17:20:35Z</time>
      </trkpt>
      <trkpt lat="49.35089" lon="2.98098">
        <ele>78.97</ele>
        <time>2021-07-28T17:20:43Z</time>
      </trkpt>
      <trkpt lat="49.35083" lon="2.98097">
        <ele>79.45</ele>
        <time>2021-07-28T17:20:44Z</time>
      </trkpt>
      <trkpt lat="49.35035" lon="2.98083">
        <ele>81.37</ele>
        <time>2021-07-28T17:20:51Z</time>
      </trkpt>
      <trkpt lat="49.35028" lon="2.98078">
        <ele>81.37</ele>
        <time>2021-07-28T17:20:52Z</time>
      </trkpt>
      <trkpt lat="49.35022" lon="2.98071">
        <ele>81.85</ele>
        <time>2021-07-28T17:20:53Z</time>
      </trkpt>
      <trkpt lat="49.35016" lon="2.98064">
        <ele>82.33</ele>
        <time>2021-07-28T17:20:54Z</time>
      </trkpt>
      <trkpt lat="49.35004" lon="2.98049">
        <ele>82.33</ele>
        <time>2021-07-28T17:20:55Z</time>
      </trkpt>
      <trkpt lat="49.35004" lon="2.98049">
        <ele>81.85</ele>
        <time>2021-07-28T17:20:56Z</time>
      </trkpt>
      <trkpt lat="49.34998" lon="2.98041">
        <ele>82.33</ele>
        <time>2021-07-28T17:20:57Z</time>
      </trkpt>
      <trkpt lat="49.34992" lon="2.98033">
        <ele>82.33</ele>
        <time>2021-07-28T17:20:58Z</time>
      </trkpt>
      <trkpt lat="49.34987" lon="2.98023">
        <ele>82.33</ele>
        <time>2021-07-28T17:20:59Z</time>
      </trkpt>
      <trkpt lat="49.34959" lon="2.97951">
        <ele>82.81</ele>
        <time>2021-07-28T17:21:06Z</time>
      </trkpt>
      <trkpt lat="49.34942" lon="2.97901">
        <ele>82.81</ele>
        <time>2021-07-28T17:21:11Z</time>
      </trkpt>
      <trkpt lat="49.34941" lon="2.97889">
        <ele>82.81</ele>
        <time>2021-07-28T17:21:12Z</time>
      </trkpt>
      <trkpt lat="49.34941" lon="2.97878">
        <ele>82.33</ele>
        <time>2021-07-28T17:21:13Z</time>
      </trkpt>
      <trkpt lat="49.34941" lon="2.97867">
        <ele>82.33</ele>
        <time>2021-07-28T17:21:14Z</time>
      </trkpt>
      <trkpt lat="49.34941" lon="2.97855">
        <ele>81.85</ele>
        <time>2021-07-28T17:21:15Z</time>
      </trkpt>
      <trkpt lat="49.34941" lon="2.97788">
        <ele>81.37</ele>
        <time>2021-07-28T17:21:24Z</time>
      </trkpt>
      <trkpt lat="49.34921" lon="2.97784">
        <ele>81.37</ele>
        <time>2021-07-28T17:21:34Z</time>
      </trkpt>
      <trkpt lat="49.34897" lon="2.97783">
        <ele>81.37</ele>
        <time>2021-07-28T17:21:43Z</time>
      </trkpt>
      <trkpt lat="49.34826" lon="2.97781">
        <ele>81.85</ele>
        <time>2021-07-28T17:21:58Z</time>
      </trkpt>
      <trkpt lat="49.34764" lon="2.97777">
        <ele>82.81</ele>
        <time>2021-07-28T17:22:11Z</time>
      </trkpt>
      <trkpt lat="49.34708" lon="2.97773">
        <ele>84.25</ele>
        <time>2021-07-28T17:22:24Z</time>
      </trkpt>
      <trkpt lat="49.34707" lon="2.97773">
        <ele>84.25</ele>
        <time>2021-07-28T17:22:25Z</time>
      </trkpt>
      <trkpt lat="49.34706" lon="2.97773">
        <ele>84.73</ele>
        <time>2021-07-28T17:22:26Z</time>
      </trkpt>
      <trkpt lat="49.34705" lon="2.97769">
        <ele>84.25</ele>
        <time>2021-07-28T17:22:27Z</time>
      </trkpt>
      <trkpt lat="49.34704" lon="2.97766">
        <ele>84.25</ele>
        <time>2021-07-28T17:22:28Z</time>
      </trkpt>
      <trkpt lat="49.34704" lon="2.97757">
        <ele>84.25</ele>
        <time>2021-07-28T17:22:29Z</time>
      </trkpt>
      <trkpt lat="49.34704" lon="2.97752">
        <ele>84.25</ele>
        <time>2021-07-28T17:22:30Z</time>
      </trkpt>
      <trkpt lat="49.34703" lon="2.97702">
        <ele>83.77</ele>
        <time>2021-07-28T17:22:44Z</time>
      </trkpt>
      <trkpt lat="49.34698" lon="2.9769">
        <ele>84.25</ele>
        <time>2021-07-28T17:22:54Z</time>
      </trkpt>
      <trkpt lat="49.34694" lon="2.97689">
        <ele>84.25</ele>
        <time>2021-07-28T17:22:55Z</time>
      </trkpt>
      <trkpt lat="49.3469" lon="2.97689">
        <ele>84.25</ele>
        <time>2021-07-28T17:22:56Z</time>
      </trkpt>
      <trkpt lat="49.3469" lon="2.97689">
        <ele>84.25</ele>
        <time>2021-07-28T17:22:57Z</time>
      </trkpt>
      <trkpt lat="49.3469" lon="2.97689">
        <ele>84.73</ele>
        <time>2021-07-28T17:22:58Z</time>
      </trkpt>
      <trkpt lat="49.3469" lon="2.97689">
        <ele>84.73</ele>
        <time>2021-07-28T17:22:59Z</time>
      </trkpt>
      <trkpt lat="49.3469" lon="2.97689">
        <ele>85.21</ele>
        <time>2021-07-28T17:23:10Z</time>
      </trkpt>
      <trkpt lat="49.34689" lon="2.97697">
        <ele>84.73</ele>
        <time>2021-07-28T17:23:21Z</time>
      </trkpt>
      <trkpt lat="49.34692" lon="2.97775">
        <ele>83.77</ele>
        <time>2021-07-28T17:24:00Z</time>
      </trkpt>
      <trkpt lat="49.34698" lon="2.97774">
        <ele>84.25</ele>
        <time>2021-07-28T17:24:17Z</time>
      </trkpt>
      <trkpt lat="49.34708" lon="2.97773">
        <ele>84.25</ele>
        <time>2021-07-28T17:24:51Z</time>
      </trkpt>
      <trkpt lat="49.34752" lon="2.97776">
        <ele>83.29</ele>
        <time>2021-07-28T17:25:03Z</time>
      </trkpt>
      <trkpt lat="49.34815" lon="2.9778">
        <ele>81.37</ele>
        <time>2021-07-28T17:25:20Z</time>
      </trkpt>
      <trkpt lat="49.34892" lon="2.97783">
        <ele>82.33</ele>
        <time>2021-07-28T17:25:37Z</time>
      </trkpt>
      <trkpt lat="49.3494" lon="2.97785">
        <ele>81.85</ele>
        <time>2021-07-28T17:25:51Z</time>
      </trkpt>
      <trkpt lat="49.34941" lon="2.9778">
        <ele>81.85</ele>
        <time>2021-07-28T17:26:07Z</time>
      </trkpt>
      <trkpt lat="49.34941" lon="2.97776">
        <ele>81.85</ele>
        <time>2021-07-28T17:26:08Z</time>
      </trkpt>
      <trkpt lat="49.34941" lon="2.97771">
        <ele>82.33</ele>
        <time>2021-07-28T17:26:09Z</time>
      </trkpt>
      <trkpt lat="49.34941" lon="2.97764">
        <ele>82.33</ele>
        <time>2021-07-28T17:26:10Z</time>
      </trkpt>
      <trkpt lat="49.34942" lon="2.97756">
        <ele>82.33</ele>
        <time>2021-07-28T17:26:11Z</time>
      </trkpt>
      <trkpt lat="49.34952" lon="2.97641">
        <ele>84.25</ele>
        <time>2021-07-28T17:26:25Z</time>
      </trkpt>
      <trkpt lat="49.34959" lon="2.9757">
        <ele>84.25</ele>
        <time>2021-07-28T17:26:33Z</time>
      </trkpt>
      <trkpt lat="49.34962" lon="2.97546">
        <ele>84.25</ele>
        <time>2021-07-28T17:26:36Z</time>
      </trkpt>
      <trkpt lat="49.34964" lon="2.97538">
        <ele>84.73</ele>
        <time>2021-07-28T17:26:37Z</time>
      </trkpt>
      <trkpt lat="49.34965" lon="2.97531">
        <ele>84.73</ele>
        <time>2021-07-28T17:26:38Z</time>
      </trkpt>
      <trkpt lat="49.34971" lon="2.97502">
        <ele>86.66</ele>
        <time>2021-07-28T17:26:47Z</time>
      </trkpt>
      <trkpt lat="49.34976" lon="2.97474">
        <ele>87.62</ele>
        <time>2021-07-28T17:26:56Z</time>
      </trkpt>
      <trkpt lat="49.34977" lon="2.97469">
        <ele>87.62</ele>
        <time>2021-07-28T17:26:57Z</time>
      </trkpt>
      <trkpt lat="49.34983" lon="2.9742">
        <ele>87.62</ele>
        <time>2021-07-28T17:27:03Z</time>
      </trkpt>
      <trkpt lat="49.34984" lon="2.97411">
        <ele>87.62</ele>
        <time>2021-07-28T17:27:04Z</time>
      </trkpt>
      <trkpt lat="49.34986" lon="2.97283">
        <ele>91.46</ele>
        <time>2021-07-28T17:27:16Z</time>
      </trkpt>
      <trkpt lat="49.34989" lon="2.97166">
        <ele>91.94</ele>
        <time>2021-07-28T17:27:29Z</time>
      </trkpt>
      <trkpt lat="49.3499" lon="2.97156">
        <ele>91.94</ele>
        <time>2021-07-28T17:27:31Z</time>
      </trkpt>
      <trkpt lat="49.34987" lon="2.97147">
        <ele>91.46</ele>
        <time>2021-07-28T17:27:32Z</time>
      </trkpt>
      <trkpt lat="49.34984" lon="2.97142">
        <ele>90.98</ele>
        <time>2021-07-28T17:27:33Z</time>
      </trkpt>
      <trkpt lat="49.34981" lon="2.97137">
        <ele>90.5</ele>
        <time>2021-07-28T17:27:34Z</time>
      </trkpt>
      <trkpt lat="49.34977" lon="2.97131">
        <ele>90.5</ele>
        <time>2021-07-28T17:27:35Z</time>
      </trkpt>
      <trkpt lat="49.34942" lon="2.97071">
        <ele>89.54</ele>
        <time>2021-07-28T17:27:46Z</time>
      </trkpt>
      <trkpt lat="49.34928" lon="2.97046">
        <ele>89.06</ele>
        <time>2021-07-28T17:27:55Z</time>
      </trkpt>
      <trkpt lat="49.34912" lon="2.97015">
        <ele>89.06</ele>
        <time>2021-07-28T17:28:00Z</time>
      </trkpt>
      <trkpt lat="49.34909" lon="2.97006">
        <ele>89.54</ele>
        <time>2021-07-28T17:28:01Z</time>
      </trkpt>
      <trkpt lat="49.34896" lon="2.96946">
        <ele>91.46</ele>
        <time>2021-07-28T17:28:10Z</time>
      </trkpt>
      <trkpt lat="49.34892" lon="2.9692">
        <ele>89.06</ele>
        <time>2021-07-28T17:28:23Z</time>
      </trkpt>
      <trkpt lat="49.34889" lon="2.96905">
        <ele>87.62</ele>
        <time>2021-07-28T17:28:32Z</time>
      </trkpt>
      <trkpt lat="49.34886" lon="2.96893">
        <ele>87.62</ele>
        <time>2021-07-28T17:28:43Z</time>
      </trkpt>
      <trkpt lat="49.34885" lon="2.96889">
        <ele>87.62</ele>
        <time>2021-07-28T17:28:44Z</time>
      </trkpt>
      <trkpt lat="49.3486" lon="2.96919">
        <ele>87.62</ele>
        <time>2021-07-28T17:28:55Z</time>
      </trkpt>
      <trkpt lat="49.34862" lon="2.9692">
        <ele>87.62</ele>
        <time>2021-07-28T17:29:14Z</time>
      </trkpt>
      <trkpt lat="49.34862" lon="2.96921">
        <ele>88.1</ele>
        <time>2021-07-28T17:31:26Z</time>
      </trkpt>
      <trkpt lat="49.3486" lon="2.96918">
        <ele>88.58</ele>
        <time>2021-07-28T17:32:54Z</time>
      </trkpt>
      <trkpt lat="49.34893" lon="2.96928">
        <ele>91.46</ele>
        <time>2021-07-28T17:33:04Z</time>
      </trkpt>
      <trkpt lat="49.34895" lon="2.96943">
        <ele>91.94</ele>
        <time>2021-07-28T17:33:08Z</time>
      </trkpt>
      <trkpt lat="49.34896" lon="2.96948">
        <ele>91.46</ele>
        <time>2021-07-28T17:33:09Z</time>
      </trkpt>
      <trkpt lat="49.34907" lon="2.96999">
        <ele>90.02</ele>
        <time>2021-07-28T17:33:15Z</time>
      </trkpt>
      <trkpt lat="49.3491" lon="2.97007">
        <ele>90.02</ele>
        <time>2021-07-28T17:33:16Z</time>
      </trkpt>
      <trkpt lat="49.34913" lon="2.97016">
        <ele>90.02</ele>
        <time>2021-07-28T17:33:17Z</time>
      </trkpt>
      <trkpt lat="49.34945" lon="2.97076">
        <ele>89.54</ele>
        <time>2021-07-28T17:33:28Z</time>
      </trkpt>
      <trkpt lat="49.3499" lon="2.97152">
        <ele>90.98</ele>
        <time>2021-07-28T17:33:42Z</time>
      </trkpt>
      <trkpt lat="49.34988" lon="2.97178">
        <ele>90.5</ele>
        <time>2021-07-28T17:33:52Z</time>
      </trkpt>
      <trkpt lat="49.34987" lon="2.97226">
        <ele>89.54</ele>
        <time>2021-07-28T17:34:02Z</time>
      </trkpt>
      <trkpt lat="49.34986" lon="2.97363">
        <ele>87.62</ele>
        <time>2021-07-28T17:34:15Z</time>
      </trkpt>
      <trkpt lat="49.34975" lon="2.97481">
        <ele>85.69</ele>
        <time>2021-07-28T17:34:27Z</time>
      </trkpt>
      <trkpt lat="49.34972" lon="2.97497">
        <ele>86.18</ele>
        <time>2021-07-28T17:34:34Z</time>
      </trkpt>
      <trkpt lat="49.34961" lon="2.97553">
        <ele>84.25</ele>
        <time>2021-07-28T17:34:45Z</time>
      </trkpt>
      <trkpt lat="49.34958" lon="2.97584">
        <ele>81.85</ele>
        <time>2021-07-28T17:34:58Z</time>
      </trkpt>
      <trkpt lat="49.34947" lon="2.97685">
        <ele>82.81</ele>
        <time>2021-07-28T17:35:14Z</time>
      </trkpt>
      <trkpt lat="49.34941" lon="2.97777">
        <ele>78.97</ele>
        <time>2021-07-28T17:35:30Z</time>
      </trkpt>
      <trkpt lat="49.34904" lon="2.97784">
        <ele>78.48</ele>
        <time>2021-07-28T17:35:40Z</time>
      </trkpt>
      <trkpt lat="49.34824" lon="2.97781">
        <ele>78.48</ele>
        <time>2021-07-28T17:35:59Z</time>
      </trkpt>
      <trkpt lat="49.34757" lon="2.97776">
        <ele>80.41</ele>
        <time>2021-07-28T17:36:14Z</time>
      </trkpt>
      <trkpt lat="49.34707" lon="2.97773">
        <ele>80.89</ele>
        <time>2021-07-28T17:36:29Z</time>
      </trkpt>
      <trkpt lat="49.34704" lon="2.97734">
        <ele>81.37</ele>
        <time>2021-07-28T17:36:40Z</time>
      </trkpt>
      <trkpt lat="49.34697" lon="2.9769">
        <ele>83.29</ele>
        <time>2021-07-28T17:36:56Z</time>
      </trkpt>
      <trkpt lat="49.34694" lon="2.9769">
        <ele>83.29</ele>
        <time>2021-07-28T17:36:58Z</time>
      </trkpt>
      <trkpt lat="49.34693" lon="2.97689">
        <ele>83.29</ele>
        <time>2021-07-28T17:36:59Z</time>
      </trkpt>
      <trkpt lat="49.3469" lon="2.97689">
        <ele>83.29</ele>
        <time>2021-07-28T17:37:00Z</time>
      </trkpt>
      <trkpt lat="49.3469" lon="2.97689">
        <ele>82.81</ele>
        <time>2021-07-28T17:37:02Z</time>
      </trkpt>
      <trkpt lat="49.3469" lon="2.97689">
        <ele>84.25</ele>
        <time>2021-07-28T17:37:11Z</time>
      </trkpt>
      <trkpt lat="49.3469" lon="2.97689">
        <ele>84.25</ele>
        <time>2021-07-28T17:37:15Z</time>
      </trkpt>
      <trkpt lat="49.34702" lon="2.97674">
        <ele>84.25</ele>
        <time>2021-07-28T17:37:16Z</time>
      </trkpt>
      <trkpt lat="49.34702" lon="2.97676">
        <ele>84.25</ele>
        <time>2021-07-28T17:37:17Z</time>
      </trkpt>
      <trkpt lat="49.3469" lon="2.97689">
        <ele>84.25</ele>
        <time>2021-07-28T17:37:18Z</time>
      </trkpt>
      <trkpt lat="49.3469" lon="2.97689">
        <ele>84.25</ele>
        <time>2021-07-28T17:37:19Z</time>
      </trkpt>
      <trkpt lat="49.3469" lon="2.97689">
        <ele>84.25</ele>
        <time>2021-07-28T17:37:20Z</time>
      </trkpt>
      <trkpt lat="49.34688" lon="2.97741">
        <ele>83.29</ele>
        <time>2021-07-28T17:37:36Z</time>
      </trkpt>
      <trkpt lat="49.34692" lon="2.97775">
        <ele>83.29</ele>
        <time>2021-07-28T17:37:49Z</time>
      </trkpt>
      <trkpt lat="49.34701" lon="2.97773">
        <ele>84.73</ele>
        <time>2021-07-28T17:38:03Z</time>
      </trkpt>
      <trkpt lat="49.34703" lon="2.97773">
        <ele>84.73</ele>
        <time>2021-07-28T17:38:16Z</time>
      </trkpt>
      <trkpt lat="49.34705" lon="2.97772">
        <ele>84.73</ele>
        <time>2021-07-28T17:38:17Z</time>
      </trkpt>
      <trkpt lat="49.34705" lon="2.97768">
        <ele>84.73</ele>
        <time>2021-07-28T17:38:18Z</time>
      </trkpt>
      <trkpt lat="49.34704" lon="2.97764">
        <ele>84.25</ele>
        <time>2021-07-28T17:38:19Z</time>
      </trkpt>
      <trkpt lat="49.34704" lon="2.97756">
        <ele>84.25</ele>
        <time>2021-07-28T17:38:20Z</time>
      </trkpt>
      <trkpt lat="49.34704" lon="2.97756">
        <ele>84.25</ele>
        <time>2021-07-28T17:38:21Z</time>
      </trkpt>
      <trkpt lat="49.34703" lon="2.9772">
        <ele>84.25</ele>
        <time>2021-07-28T17:38:37Z</time>
      </trkpt>
      <trkpt lat="49.34703" lon="2.97695">
        <ele>84.73</ele>
        <time>2021-07-28T17:38:48Z</time>
      </trkpt>
      <trkpt lat="49.347" lon="2.97615">
        <ele>86.18</ele>
        <time>2021-07-28T17:38:59Z</time>
      </trkpt>
      <trkpt lat="49.34695" lon="2.97528">
        <ele>89.54</ele>
        <time>2021-07-28T17:39:12Z</time>
      </trkpt>
      <trkpt lat="49.34693" lon="2.97483">
        <ele>90.5</ele>
        <time>2021-07-28T17:39:24Z</time>
      </trkpt>
      <trkpt lat="49.34693" lon="2.97467">
        <ele>90.5</ele>
        <time>2021-07-28T17:39:28Z</time>
      </trkpt>
      <trkpt lat="49.34693" lon="2.97465">
        <ele>90.02</ele>
        <time>2021-07-28T17:39:46Z</time>
      </trkpt>
      <trkpt lat="49.34693" lon="2.97465">
        <ele>90.02</ele>
        <time>2021-07-28T17:40:30Z</time>
      </trkpt>
      <trkpt lat="49.34693" lon="2.97465">
        <ele>90.02</ele>
        <time>2021-07-28T17:40:51Z</time>
      </trkpt>
      <trkpt lat="49.34693" lon="2.97465">
        <ele>89.54</ele>
        <time>2021-07-28T17:42:44Z</time>
      </trkpt>
    </trkseg>
  </trk>
</gpx>